Time;durP1;ratioP1;P1;durP2;ratioP2;P2;SDS_P1;SDS_P2;PMS_P1;PMS_P2;Temp;Humidity;BMP_temperature;BMP_pressure;BME280_temperature;BME280_humidity;BME280_pressure;Samples;Min_cycle;Max_cycle;Signal;HPM_P1;HPM_P2
2023/12/26 00:01:12;;;;;;;12.45;5.78;;;;;;;15.95;41.00;100535.03;5091170;28;20115;-78
2023/12/26 00:03:38;;;;;;;14.52;4.95;;;;;;;15.97;41.17;100535.72;5091206;28;20480;-77
2023/12/26 00:06:04;;;;;;;14.85;4.97;;;;;;;15.80;41.19;100523.09;5091060;28;20031;-78
2023/12/26 00:08:29;;;;;;;13.98;5.47;;;;;;;15.86;41.61;100546.88;5091230;28;20027;-75
2023/12/26 00:10:55;;;;;;;15.85;4.75;;;;;;;15.85;41.40;100545.16;5091337;28;20032;-77
2023/12/26 00:13:21;;;;;;;8.85;4.40;;;;;;;15.86;41.36;100560.44;5091691;28;20412;-74
2023/12/26 00:15:47;;;;;;;9.48;5.00;;;;;;;15.82;41.75;100561.75;5072243;28;20043;-78
2023/12/26 00:18:12;;;;;;;11.52;5.53;;;;;;;15.77;41.60;100577.66;5094947;28;20104;-78
2023/12/26 00:20:43;;;;;;;11.65;4.63;;;;;;;15.78;42.00;100577.47;5099854;28;20040;-77
2023/12/26 00:23:08;;;;;;;17.88;6.45;;;;;;;15.70;41.84;100598.28;5094515;28;20502;-77
2023/12/26 00:25:34;;;;;;;9.55;6.05;;;;;;;15.55;41.94;100580.88;5090896;28;20048;-78
2023/12/26 00:27:59;;;;;;;15.35;5.88;;;;;;;15.55;42.38;100597.13;5090781;28;20034;-77
2023/12/26 00:30:25;;;;;;;13.40;5.82;;;;;;;15.52;42.20;100597.44;5090655;28;20028;-78
2023/12/26 00:32:50;;;;;;;9.05;4.75;;;;;;;15.58;42.16;100613.09;5090645;28;20020;-79
2023/12/26 00:35:16;;;;;;;9.55;5.57;;;;;;;15.61;42.44;100626.34;5089399;28;20549;-78
2023/12/26 00:37:41;;;;;;;13.85;5.30;;;;;;;15.61;42.03;100626.34;5090622;28;20016;-76
2023/12/26 00:40:08;;;;;;;11.43;4.85;;;;;;;15.65;42.24;100630.44;5089711;28;20109;-78
2023/12/26 00:42:33;;;;;;;12.25;4.95;;;;;;;15.63;42.34;100627.00;5089941;28;20020;-76
2023/12/26 00:44:59;;;;;;;17.02;5.97;;;;;;;15.62;42.12;100637.03;5088967;28;20404;-79
2023/12/26 00:47:24;;;;;;;15.40;5.57;;;;;;;15.56;42.31;100631.38;5090411;28;20040;-78
2023/12/26 00:49:50;;;;;;;16.75;4.75;;;;;;;15.62;42.46;100653.31;5090271;28;20031;-76
2023/12/26 00:52:15;;;;;;;15.60;5.57;;;;;;;15.42;42.27;100621.91;5090568;28;20020;-78
2023/12/26 00:54:41;;;;;;;10.57;5.32;;;;;;;15.58;42.25;100651.03;5090198;28;20673;-78
2023/12/26 00:57:06;;;;;;;8.23;4.40;;;;;;;15.52;42.46;100643.53;5090338;28;20028;-77
2023/12/26 00:59:33;;;;;;;15.55;5.38;;;;;;;15.59;42.16;100655.47;5090865;28;20032;-77
2023/12/26 01:02:01;;;;;;;17.98;5.05;;;;;;;15.50;42.32;100649.13;5090863;28;20028;-77
2023/12/26 01:04:27;;;;;;;10.60;4.38;;;;;;;15.56;42.56;100670.19;5090729;28;20196;-77
2023/12/26 01:06:53;;;;;;;11.60;4.75;;;;;;;15.58;42.56;100672.72;5090344;28;20165;-75
2023/12/26 01:09:18;;;;;;;14.80;4.63;;;;;;;15.61;42.56;100672.41;5095838;28;20051;-75
2023/12/26 01:11:44;;;;;;;21.67;6.25;;;;;;;15.62;42.51;100668.72;5097253;28;20422;-76
2023/12/26 01:14:10;;;;;;;19.95;5.65;;;;;;;15.58;42.50;100670.03;5090568;28;20059;-76
2023/12/26 01:16:37;;;;;;;15.50;5.80;;;;;;;15.44;42.11;100638.03;5089665;28;20602;-77
2023/12/26 01:19:02;;;;;;;12.55;5.00;;;;;;;15.57;42.25;100671.88;5089784;28;20032;-76
2023/12/26 01:21:28;;;;;;;9.43;4.72;;;;;;;15.49;42.25;100666.41;5089610;28;20028;-79
2023/12/26 01:23:55;;;;;;;8.95;4.70;;;;;;;15.42;42.38;100645.44;5089447;28;20043;-76
2023/12/26 01:26:23;;;;;;;14.65;4.55;;;;;;;15.45;42.26;100650.53;5089128;28;20048;-76
2023/12/26 01:28:48;;;;;;;9.30;4.45;;;;;;;15.46;42.40;100665.81;5089191;28;20113;-78
2023/12/26 01:31:14;;;;;;;11.45;4.65;;;;;;;15.48;42.19;100658.41;5089439;28;20064;-77
2023/12/26 01:33:39;;;;;;;16.80;5.40;;;;;;;15.56;42.19;100670.19;5089555;28;20400;-78
2023/12/26 01:36:05;;;;;;;10.57;5.07;;;;;;;15.53;41.76;100673.22;5089364;28;20035;-77
2023/12/26 01:38:31;;;;;;;10.50;4.80;;;;;;;15.53;41.97;100670.50;5089342;28;20031;-78
2023/12/26 01:40:56;;;;;;;11.82;5.00;;;;;;;15.60;41.70;100678.84;5089049;28;20032;-78
2023/12/26 01:43:22;;;;;;;16.98;5.72;;;;;;;15.61;41.90;100678.69;5089046;28;20028;-78
2023/12/26 01:45:59;;;;;;;10.00;4.85;;;;;;;15.64;42.07;100677.53;5089000;28;20032;-77
2023/12/26 01:48:27;;;;;;;13.40;5.20;;;;;;;15.66;42.04;100672.78;5089320;28;20028;-78
2023/12/26 01:50:53;;;;;;;15.70;5.25;;;;;;;15.64;41.83;100666.69;5089604;28;20160;-78
2023/12/26 01:53:19;;;;;;;11.45;4.50;;;;;;;15.71;41.69;100662.34;5089286;28;20130;-78
2023/12/26 01:55:44;;;;;;;9.70;5.22;;;;;;;15.71;41.97;100656.94;5089128;28;20089;-76
2023/12/26 01:58:10;;;;;;;7.80;3.88;;;;;;;15.81;41.65;100668.50;5090489;28;20042;-79
2023/12/26 02:00:36;;;;;;;14.68;5.15;;;;;;;15.85;41.43;100663.63;5095280;28;20051;-77
2023/12/26 02:03:01;;;;;;;13.73;5.60;;;;;;;15.84;41.26;100678.22;5092755;28;20103;-76
2023/12/26 02:05:28;;;;;;;10.85;5.53;;;;;;;15.86;41.50;100671.63;5088878;28;20024;-78
2023/12/26 02:07:54;;;;;;;11.88;5.82;;;;;;;15.89;41.33;100668.59;5088850;28;20101;-77
2023/12/26 02:10:19;;;;;;;9.02;5.10;;;;;;;15.97;41.23;100674.06;5088591;28;20549;-77
2023/12/26 02:12:45;;;;;;;10.07;5.38;;;;;;;15.94;41.39;100668.97;5088870;28;20028;-77
2023/12/26 02:15:13;;;;;;;16.25;4.22;;;;;;;16.03;41.35;100692.44;5088871;28;20032;-77
2023/12/26 02:17:39;;;;;;;11.23;5.05;;;;;;;16.04;41.13;100686.00;5088355;28;20115;-75
2023/12/26 02:20:05;;;;;;;11.20;5.95;;;;;;;15.99;41.32;100671.22;5088811;28;20070;-77
2023/12/26 02:22:31;;;;;;;12.25;5.60;;;;;;;16.04;41.08;100696.84;5088632;28;20028;-77
2023/12/26 02:24:57;;;;;;;9.48;5.30;;;;;;;16.06;41.40;100685.84;5086361;28;20047;-77
2023/12/26 02:27:29;;;;;;;11.73;5.55;;;;;;;15.95;41.32;100683.38;5073044;28;20024;-78
2023/12/26 02:29:56;;;;;;;13.63;5.68;;;;;;;15.94;41.06;100685.25;5068495;28;20035;-77
2023/12/26 02:32:28;;;;;;;12.90;5.35;;;;;;;15.96;41.42;100694.06;5067958;28;20049;-79
2023/12/26 02:35:00;;;;;;;14.88;5.75;;;;;;;15.97;41.15;100709.34;5068102;28;20028;-77
2023/12/26 02:37:26;;;;;;;10.50;5.30;;;;;;;15.83;41.27;100682.78;5068295;28;20050;-78
2023/12/26 02:39:52;;;;;;;12.95;5.68;;;;;;;15.94;41.21;100709.66;5068891;28;20473;-78
2023/12/26 02:42:22;;;;;;;11.00;5.05;;;;;;;15.93;41.22;100705.22;5069951;28;20059;-78
2023/12/26 02:44:48;;;;;;;12.13;5.05;;;;;;;15.76;41.44;100677.13;5068824;28;20029;-78
2023/12/26 02:47:14;;;;;;;14.90;6.00;;;;;;;15.92;41.41;100708.13;5069715;28;20396;-76
2023/12/26 02:49:40;;;;;;;10.50;5.75;;;;;;;15.88;41.47;100695.88;5074269;28;20128;-78
2023/12/26 02:52:06;;;;;;;13.88;5.40;;;;;;;15.85;41.49;100699.75;5076581;28;20060;-77
2023/12/26 02:54:31;;;;;;;12.93;5.55;;;;;;;15.63;41.45;100667.69;5069787;28;20032;-78
2023/12/26 02:56:57;;;;;;;16.88;7.80;;;;;;;15.54;42.01;100660.50;5068419;28;20033;-78
2023/12/26 02:59:22;;;;;;;57.55;38.75;;;;;;;15.72;41.85;100691.16;5068374;28;20021;-77
2023/12/26 03:01:51;;;;;;;40.83;28.40;;;;;;;15.50;41.82;100659.13;5068083;28;20028;-76
2023/12/26 03:04:16;;;;;;;30.67;18.70;;;;;;;15.63;42.10;100686.66;5067436;28;20031;-76
2023/12/26 03:06:42;;;;;;;16.17;9.57;;;;;;;15.54;41.91;100682.16;5067888;28;20025;-78
2023/12/26 03:09:08;;;;;;;19.95;9.30;;;;;;;15.56;42.36;100697.31;5067689;28;20104;-76
2023/12/26 03:11:34;;;;;;;15.90;7.55;;;;;;;15.50;41.99;100691.66;5085027;28;20036;-77
2023/12/26 03:14:01;;;;;;;12.45;6.00;;;;;;;15.51;42.17;100715.88;5085190;28;20035;-77
2023/12/26 03:16:26;;;;;;;15.95;6.30;;;;;;;15.45;42.42;100700.19;5085077;28;20056;-75
2023/12/26 03:18:52;;;;;;;16.08;5.65;;;;;;;15.46;42.38;100706.47;5085413;28;20032;-78
2023/12/26 03:21:17;;;;;;;12.05;6.13;;;;;;;15.44;42.49;100719.34;5085532;28;20044;-76
2023/12/26 03:23:43;;;;;;;11.30;5.05;;;;;;;15.37;43.02;100723.66;5085167;28;20495;-77
2023/12/26 03:26:09;;;;;;;13.43;6.57;;;;;;;15.21;42.74;100713.50;5084911;28;20052;-77
2023/12/26 03:28:34;;;;;;;15.80;5.22;;;;;;;15.20;42.86;100712.63;5085286;28;20048;-77
2023/12/26 03:31:04;;;;;;;21.70;5.97;;;;;;;15.23;43.01;100723.16;5085821;28;20040;-76
2023/12/26 03:33:30;;;;;;;20.40;7.38;;;;;;;15.14;43.18;100728.63;5086255;28;20025;-78
2023/12/26 03:35:55;;;;;;;15.75;7.07;;;;;;;15.08;43.54;100738.22;5085814;28;20043;-77
2023/12/26 03:38:21;;;;;;;15.23;5.50;;;;;;;14.99;43.61;100736.44;5085182;28;20036;-78
2023/12/26 03:40:47;;;;;;;15.85;6.18;;;;;;;14.94;44.09;100738.75;5094894;28;20032;-77
2023/12/26 03:43:12;;;;;;;22.92;7.15;;;;;;;14.94;44.05;100752.28;5081206;28;20071;-77
2023/12/26 03:45:38;;;;;;;18.13;6.47;;;;;;;14.88;44.35;100744.75;5067609;28;20063;-78
2023/12/26 03:48:05;;;;;;;19.88;6.70;;;;;;;14.72;44.42;100733.69;5067747;28;20013;-77
2023/12/26 03:50:31;;;;;;;32.80;7.90;;;;;;;14.52;44.38;100726.66;5067346;28;20040;-77
2023/12/26 03:52:56;;;;;;;24.83;7.32;;;;;;;14.62;44.67;100771.63;5067247;28;20066;-77
2023/12/26 03:55:22;;;;;;;19.90;6.55;;;;;;;14.48;44.82;100763.13;5067600;28;20141;-82
2023/12/26 03:57:48;;;;;;;29.13;8.48;;;;;;;14.29;45.48;100763.13;5067562;28;20017;-78
2023/12/26 04:00:14;;;;;;;18.33;6.80;;;;;;;14.11;45.70;100776.56;5067517;28;20038;-77
2023/12/26 04:02:40;;;;;;;11.23;5.75;;;;;;;14.05;45.69;100767.16;5067384;28;20031;-77
2023/12/26 04:05:07;;;;;;;15.70;6.18;;;;;;;13.98;46.09;100770.56;5067286;28;20021;-79
2023/12/26 04:07:33;;;;;;;17.65;5.03;;;;;;;14.01;46.08;100765.75;5067273;28;20044;-77
2023/12/26 04:09:58;;;;;;;25.13;6.75;;;;;;;14.05;45.94;100767.16;5067398;28;20113;-77
2023/12/26 04:12:24;;;;;;;15.27;4.93;;;;;;;14.11;45.46;100768.44;5067102;28;20029;-77
2023/12/26 04:14:49;;;;;;;18.55;5.85;;;;;;;14.19;44.78;100760.44;5067526;28;20029;-78
2023/12/26 04:17:16;;;;;;;10.32;4.97;;;;;;;14.31;44.35;100771.97;5070636;28;20422;-77
2023/12/26 04:19:42;;;;;;;11.60;5.97;;;;;;;14.36;44.74;100773.28;5070701;28;20543;-78
2023/12/26 04:22:09;;;;;;;15.48;4.95;;;;;;;14.41;44.34;100772.81;5070870;28;20154;-78
2023/12/26 04:24:35;;;;;;;15.07;5.32;;;;;;;14.49;43.87;100767.56;5071366;28;20120;-77
2023/12/26 04:27:01;;;;;;;9.60;4.50;;;;;;;14.58;43.89;100774.81;5071107;28;20131;-77
2023/12/26 04:29:26;;;;;;;10.20;4.40;;;;;;;14.19;43.93;100704.50;5073168;28;20037;-78
2023/12/26 04:31:52;;;;;;;8.10;4.40;;;;;;;14.64;44.24;100772.34;5080184;28;20020;-78
2023/12/26 04:34:18;;;;;;;10.85;4.85;;;;;;;14.83;43.91;100789.53;5076407;28;20505;-79
2023/12/26 04:36:43;;;;;;;13.90;4.82;;;;;;;14.88;43.44;100787.22;5070392;28;20460;-76
2023/12/26 04:39:09;;;;;;;13.88;4.75;;;;;;;14.84;43.28;100774.97;5070562;28;20032;-76
2023/12/26 04:41:34;;;;;;;10.15;5.70;;;;;;;14.95;43.38;100786.47;5070272;28;20033;-78
2023/12/26 04:44:00;;;;;;;12.68;5.28;;;;;;;15.01;43.07;100790.47;5070669;28;20028;-77
2023/12/26 04:46:26;;;;;;;13.02;5.97;;;;;;;15.01;42.91;100782.34;5070280;28;20029;-77
2023/12/26 04:48:53;;;;;;;15.70;6.28;;;;;;;14.98;43.11;100794.28;5069770;28;20041;-77
2023/12/26 04:51:19;;;;;;;20.90;7.53;;;;;;;14.94;43.00;100795.63;5070251;28;20067;-78
2023/12/26 04:53:49;;;;;;;18.58;6.40;;;;;;;14.81;43.12;100786.97;5070561;28;20094;-76
2023/12/26 04:56:19;;;;;;;13.63;7.00;;;;;;;14.68;43.11;100764.78;5067843;28;20149;-78
2023/12/26 04:58:49;;;;;;;13.77;6.43;;;;;;;14.64;43.83;100790.44;5070151;28;20036;-78
2023/12/26 05:01:16;;;;;;;14.30;5.10;;;;;;;14.63;43.69;100802.28;5070012;28;20029;-76
2023/12/26 05:03:43;;;;;;;17.80;8.00;;;;;;;14.50;43.74;100793.59;5069710;28;20024;-77
2023/12/26 05:06:09;;;;;;;19.13;8.82;;;;;;;14.47;43.87;100791.19;5069749;28;20025;-78
2023/12/26 05:08:39;;;;;;;17.65;7.43;;;;;;;14.52;43.94;100791.63;5069843;28;20496;-77
2023/12/26 05:11:05;;;;;;;17.05;6.78;;;;;;;14.42;43.93;100790.78;5069904;28;20021;-77
2023/12/26 05:13:32;;;;;;;14.63;7.60;;;;;;;14.41;44.44;100789.06;5070070;28;20177;-77
2023/12/26 05:16:02;;;;;;;15.25;7.03;;;;;;;14.41;44.12;100789.91;5070367;28;20058;-76
2023/12/26 05:18:27;;;;;;;17.70;7.35;;;;;;;14.39;44.02;100786.53;5070232;28;20063;-78
2023/12/26 05:20:53;;;;;;;21.92;6.95;;;;;;;14.42;44.18;100782.66;5077767;28;20029;-79
2023/12/26 05:23:18;;;;;;;15.85;6.75;;;;;;;14.38;44.11;100776.69;5081481;28;20024;-76
2023/12/26 05:25:44;;;;;;;14.32;6.30;;;;;;;14.48;43.77;100790.19;5071230;28;20525;-76
2023/12/26 05:28:09;;;;;;;10.82;6.18;;;;;;;14.41;43.94;100787.22;5068546;28;20578;-77
2023/12/26 05:30:35;;;;;;;23.65;8.13;;;;;;;14.49;43.75;100792.78;5069446;28;20024;-77
2023/12/26 05:33:00;;;;;;;25.77;6.45;;;;;;;14.50;44.01;100782.78;5069007;28;20025;-78
2023/12/26 05:35:26;;;;;;;12.55;6.32;;;;;;;14.55;43.80;100785.91;5069312;28;20024;-78
2023/12/26 05:37:51;;;;;;;21.02;6.97;;;;;;;14.57;43.69;100783.91;5073004;28;20492;-80
2023/12/26 05:40:18;;;;;;;24.80;7.07;;;;;;;14.58;43.54;100781.06;5089200;28;20034;-76
2023/12/26 05:42:43;;;;;;;13.27;6.82;;;;;;;14.53;43.41;100780.63;5089059;28;20032;-77
2023/12/26 05:45:09;;;;;;;13.40;6.72;;;;;;;14.51;43.28;100784.50;5086135;28;20381;-74
2023/12/26 05:47:34;;;;;;;24.13;6.55;;;;;;;14.62;43.40;100797.84;5088639;28;20359;-75
2023/12/26 05:50:00;;;;;;;19.17;5.57;;;;;;;14.56;42.85;100776.78;5088289;28;20111;-76
2023/12/26 05:52:26;;;;;;;17.17;5.32;;;;;;;14.68;42.94;100794.56;5089374;28;20163;-77
2023/12/26 05:54:51;;;;;;;18.08;5.93;;;;;;;14.71;42.96;100797.81;5088951;28;20036;-78
2023/12/26 05:57:17;;;;;;;12.68;5.00;;;;;;;14.78;42.74;100798.09;5089279;28;20051;-77
2023/12/26 05:59:42;;;;;;;12.10;5.53;;;;;;;14.66;42.57;100772.19;5088586;28;20036;-79
2023/12/26 06:02:08;;;;;;;17.90;5.85;;;;;;;14.88;42.58;100809.75;5089331;28;20016;-76
2023/12/26 06:04:34;;;;;;;17.70;6.22;;;;;;;14.86;42.40;100798.19;5089821;28;20028;-80
2023/12/26 06:06:59;;;;;;;13.57;6.07;;;;;;;14.74;42.59;100777.72;5089245;28;20027;-74
2023/12/26 06:09:26;;;;;;;18.08;5.32;;;;;;;14.86;42.50;100806.31;5089705;28;20400;-75
2023/12/26 06:11:52;;;;;;;11.98;5.05;;;;;;;14.87;42.65;100810.75;5092636;28;20016;-75
2023/12/26 06:14:17;;;;;;;14.88;5.00;;;;;;;14.97;42.41;100811.56;5096314;28;20051;-76
2023/12/26 06:16:43;;;;;;;12.32;4.53;;;;;;;14.90;42.27;100791.50;5102682;28;20418;-78
2023/12/26 06:19:09;;;;;;;14.52;4.82;;;;;;;14.95;42.19;100802.72;5088936;28;20024;-84
2023/12/26 06:21:36;;;;;;;16.02;5.13;;;;;;;15.07;42.40;100798.84;5088338;28;20031;-76
2023/12/26 06:24:01;;;;;;;27.73;7.35;;;;;;;15.11;42.04;100805.66;5086564;28;20063;-75
2023/12/26 06:26:27;;;;;;;18.65;7.78;;;;;;;15.18;42.15;100816.75;5087800;28;20511;-76
2023/12/26 06:28:53;;;;;;;19.20;6.97;;;;;;;15.24;41.85;100813.44;5087906;28;20518;-75
2023/12/26 06:31:18;;;;;;;17.90;6.40;;;;;;;15.27;41.65;100810.44;5088152;28;20093;-76
2023/12/26 06:33:44;;;;;;;12.07;5.70;;;;;;;15.27;41.48;100805.00;5102135;28;20416;-76
2023/12/26 06:36:10;;;;;;;17.23;5.38;;;;;;;15.35;41.26;100806.97;5088383;28;20023;-76
2023/12/26 06:38:36;;;;;;;11.25;5.22;;;;;;;15.44;41.21;100816.91;5087509;28;20103;-77
2023/12/26 06:41:02;;;;;;;13.93;5.47;;;;;;;15.45;41.05;100808.63;5088033;28;20027;-77
2023/12/26 06:43:28;;;;;;;12.07;5.05;;;;;;;15.52;41.17;100809.75;5087825;28;20024;-77
2023/12/26 06:45:54;;;;;;;9.73;5.38;;;;;;;15.60;40.89;100811.69;5087111;28;20031;-75
2023/12/26 06:48:20;;;;;;;9.43;5.45;;;;;;;15.61;40.73;100810.69;5087759;28;20040;-76
2023/12/26 06:50:45;;;;;;;20.02;5.55;;;;;;;15.69;40.86;100816.19;5087693;28;20051;-78
2023/12/26 06:53:11;;;;;;;15.88;6.40;;;;;;;15.73;40.78;100817.59;5088741;28;20020;-76
2023/12/26 06:55:36;;;;;;;15.15;7.10;;;;;;;15.71;40.33;100809.63;5087905;28;20023;-78
2023/12/26 06:58:02;;;;;;;16.77;6.47;;;;;;;15.67;40.16;100796.53;5087981;28;20139;-76
2023/12/26 07:00:27;;;;;;;17.25;6.47;;;;;;;15.89;40.25;100825.91;5093074;28;20028;-78
2023/12/26 07:02:55;;;;;;;12.35;6.53;;;;;;;15.85;39.98;100826.38;5093272;28;20039;-77
2023/12/26 07:05:20;;;;;;;19.30;10.18;;;;;;;15.90;39.98;100840.34;5089337;28;20063;-76
2023/12/26 07:07:46;;;;;;;17.45;7.47;;;;;;;15.92;40.24;100839.19;5088239;28;20056;-78
2023/12/26 07:10:11;;;;;;;19.98;6.45;;;;;;;16.02;40.25;100850.81;5087968;28;20097;-80
2023/12/26 07:12:37;;;;;;;11.82;6.28;;;;;;;15.92;40.01;100838.31;5084626;28;20172;-78
2023/12/26 07:15:07;;;;;;;16.88;7.78;;;;;;;15.99;40.24;100856.53;5083999;28;20570;-76
2023/12/26 07:17:33;;;;;;;14.93;7.43;;;;;;;15.69;40.21;100805.34;5084754;28;20055;-76
2023/12/26 07:19:59;;;;;;;11.75;6.50;;;;;;;16.05;40.31;100869.50;5085215;28;20498;-76
2023/12/26 07:22:24;;;;;;;23.48;6.80;;;;;;;16.07;40.41;100869.34;5084251;28;20039;-76
2023/12/26 07:24:50;;;;;;;23.05;8.52;;;;;;;16.13;40.35;100869.56;5085126;28;20420;-76
2023/12/26 07:27:15;;;;;;;14.90;7.55;;;;;;;16.15;40.37;100878.41;5085661;28;20028;-83
2023/12/26 07:29:41;;;;;;;24.20;7.45;;;;;;;16.14;40.52;100870.44;5085319;28;20145;-77
2023/12/26 07:32:06;;;;;;;15.25;6.82;;;;;;;16.14;40.66;100876.72;5085919;28;20043;-77
2023/12/26 07:34:32;;;;;;;16.15;7.18;;;;;;;16.21;40.45;100877.78;5085707;28;20036;-84
2023/12/26 07:36:57;;;;;;;21.92;7.05;;;;;;;16.16;40.55;100873.84;5085726;28;20538;-79
2023/12/26 07:39:23;;;;;;;21.02;5.95;;;;;;;16.06;40.86;100852.19;5085354;28;20032;-79
2023/12/26 07:41:48;;;;;;;18.73;6.25;;;;;;;16.19;40.65;100863.53;5086123;28;20032;-79
2023/12/26 07:44:14;;;;;;;13.60;6.63;;;;;;;16.14;41.07;100854.16;5086015;28;20036;-78
2023/12/26 07:46:39;;;;;;;18.58;6.20;;;;;;;16.07;40.90;100843.06;5086235;28;20036;-77
2023/12/26 07:49:06;;;;;;;15.07;5.78;;;;;;;16.20;40.90;100859.81;5086698;28;20036;-77
2023/12/26 07:51:32;;;;;;;15.65;6.15;;;;;;;16.33;40.93;100870.25;5100235;28;20024;-77
2023/12/26 07:53:59;;;;;;;19.80;7.25;;;;;;;16.38;41.03;100867.94;5106584;28;20024;-83
2023/12/26 07:56:25;;;;;;;19.65;6.30;;;;;;;16.41;41.32;100858.63;5095375;28;20032;-79
2023/12/26 07:58:52;;;;;;;16.20;7.40;;;;;;;16.52;40.88;100863.78;5092315;28;20408;-76
2023/12/26 08:01:18;;;;;;;27.77;8.80;;;;;;;16.46;40.64;100832.72;5106399;28;20105;-78
2023/12/26 08:03:44;;;;;;;22.98;6.85;;;;;;;16.71;40.62;100859.06;5092653;28;20032;-78
2023/12/26 08:06:10;;;;;;;19.10;7.82;;;;;;;16.80;40.40;100857.25;5092227;28;20903;-80
2023/12/26 08:08:36;;;;;;;29.13;11.02;;;;;;;16.92;40.30;100872.28;5092357;28;20036;-81
2023/12/26 08:11:01;;;;;;;33.25;9.15;;;;;;;17.02;40.21;100872.19;5091150;28;20115;-80
2023/12/26 08:13:27;;;;;;;22.67;8.13;;;;;;;17.11;40.06;100872.09;5091782;28;20484;-79
2023/12/26 08:15:52;;;;;;;19.08;8.85;;;;;;;17.18;40.39;100873.16;5091308;28;20012;-77
2023/12/26 08:18:18;;;;;;;23.45;8.95;;;;;;;17.19;40.55;100877.56;5091032;28;20042;-77
2023/12/26 08:20:44;;;;;;;23.73;8.43;;;;;;;17.30;40.05;100879.16;5091611;28;20046;-77
2023/12/26 08:23:09;;;;;;;17.52;8.98;;;;;;;17.36;39.79;100859.47;5091141;28;20023;-76
2023/12/26 08:25:37;;;;;;;24.30;8.30;;;;;;;17.64;39.60;100884.63;5091300;28;20408;-76
2023/12/26 08:28:03;;;;;;;24.50;9.02;;;;;;;17.69;39.45;100882.25;5091037;28;20448;-78
2023/12/26 08:30:28;;;;;;;31.55;10.05;;;;;;;17.79;39.48;100891.13;5085267;28;20024;-77
2023/12/26 08:32:54;;;;;;;25.45;10.50;;;;;;;17.77;39.66;100876.81;5085819;28;20124;-77
2023/12/26 08:35:19;;;;;;;31.92;11.50;;;;;;;17.89;39.71;100894.53;5091756;28;20115;-77
2023/12/26 08:37:45;;;;;;;28.10;10.63;;;;;;;17.98;39.93;100896.28;5090968;28;20106;-77
2023/12/26 08:40:11;;;;;;;27.92;11.55;;;;;;;18.05;39.96;100891.03;5095670;28;20075;-76
2023/12/26 08:42:36;;;;;;;25.20;11.82;;;;;;;18.22;39.91;100903.66;5097301;28;20032;-76
2023/12/26 08:45:02;;;;;;;24.95;11.10;;;;;;;18.26;39.79;100900.44;5089278;28;20046;-76
2023/12/26 08:47:27;;;;;;;28.67;10.38;;;;;;;18.41;39.83;100900.59;5090720;28;20539;-77
2023/12/26 08:49:53;;;;;;;29.65;10.88;;;;;;;18.46;39.35;100893.66;5090324;28;20028;-77
2023/12/26 08:52:19;;;;;;;19.13;10.15;;;;;;;18.46;39.18;100876.47;5090473;28;20032;-77
2023/12/26 08:54:45;;;;;;;22.60;10.40;;;;;;;18.63;39.13;100882.78;5090194;28;20035;-78
2023/12/26 08:57:10;;;;;;;31.67;11.98;;;;;;;18.80;38.87;100890.81;5090991;28;20028;-77
2023/12/26 08:59:36;;;;;;;19.80;10.27;;;;;;;18.90;38.32;100877.81;5090691;28;20064;-77
2023/12/26 09:02:02;;;;;;;19.38;9.75;;;;;;;18.99;38.11;100876.78;5089174;28;20021;-78
2023/12/26 09:04:29;;;;;;;22.75;10.52;;;;;;;19.00;37.92;100855.84;5090653;28;20035;-76
2023/12/26 09:06:55;;;;;;;44.63;10.80;;;;;;;19.21;37.35;100882.53;5090550;28;20032;-77
2023/12/26 09:09:21;;;;;;;35.22;10.48;;;;;;;19.33;37.22;100870.22;5090424;28;20716;-77
2023/12/26 09:11:46;;;;;;;36.92;11.52;;;;;;;19.37;37.34;100856.06;5089591;28;20031;-78
2023/12/26 09:14:13;;;;;;;32.90;11.60;;;;;;;19.39;36.94;100837.69;5089736;28;20038;-77
2023/12/26 09:16:39;;;;;;;25.42;10.68;;;;;;;19.66;36.78;100854.63;5090058;28;20028;-77
2023/12/26 09:19:05;;;;;;;24.20;8.23;;;;;;;19.71;36.51;100847.59;5089460;28;20040;-81
2023/12/26 09:21:31;;;;;;;23.38;8.93;;;;;;;19.52;36.68;100802.50;5089984;28;21579;-78
2023/12/26 09:23:56;;;;;;;24.58;10.13;;;;;;;20.00;36.39;100860.56;5090513;28;20028;-76
2023/12/26 09:26:22;;;;;;;22.60;8.27;;;;;;;20.03;36.00;100843.81;5086254;28;20052;-76
2023/12/26 09:28:49;;;;;;;21.83;7.47;;;;;;;20.04;35.89;100831.88;5088588;28;20127;-76
2023/12/26 09:31:14;;;;;;;20.52;7.15;;;;;;;20.21;35.87;100844.41;5073206;28;20032;-75
2023/12/26 09:33:40;;;;;;;15.35;7.50;;;;;;;20.32;35.34;100844.00;5086044;28;20028;-76
2023/12/26 09:36:06;;;;;;;19.30;6.90;;;;;;;20.36;35.32;100837.16;5090606;28;20500;-76
2023/12/26 09:38:31;;;;;;;18.05;7.10;;;;;;;20.46;35.60;100843.19;5091029;28;20056;-76
2023/12/26 09:40:58;;;;;;;15.52;8.15;;;;;;;20.45;35.28;100816.06;5103058;28;20047;-75
2023/12/26 09:43:24;;;;;;;17.88;8.15;;;;;;;20.69;35.30;100839.59;5088593;28;20464;-76
2023/12/26 09:45:50;;;;;;;17.33;6.88;;;;;;;20.65;34.94;100819.97;5089086;28;20107;-77
2023/12/26 09:48:16;;;;;;;29.17;8.75;;;;;;;20.78;34.72;100828.41;5088231;28;20036;-78
2023/12/26 09:50:42;;;;;;;20.15;7.38;;;;;;;20.83;34.59;100834.13;5088814;28;20039;-79
2023/12/26 09:53:09;;;;;;;18.17;7.28;;;;;;;20.86;34.60;100832.91;5088315;28;20506;-77
2023/12/26 09:55:35;;;;;;;14.57;6.07;;;;;;;20.69;34.32;100804.91;5088425;28;20028;-77
2023/12/26 09:58:01;;;;;;;15.35;6.65;;;;;;;20.72;34.39;100809.16;5088476;28;20024;-75
2023/12/26 10:00:27;;;;;;;12.88;6.00;;;;;;;20.64;34.24;100791.78;5088549;28;20031;-76
2023/12/26 10:02:53;;;;;;;14.20;7.15;;;;;;;20.74;34.26;100810.66;5088760;28;20099;-74
2023/12/26 10:05:19;;;;;;;13.27;5.32;;;;;;;20.75;34.18;100815.09;5088268;28;20172;-77
2023/12/26 10:07:45;;;;;;;13.02;6.07;;;;;;;20.76;34.06;100810.47;5088618;28;20057;-77
2023/12/26 10:10:12;;;;;;;10.43;6.00;;;;;;;20.69;33.90;100798.59;5088586;28;20660;-74
2023/12/26 10:12:37;;;;;;;12.07;6.05;;;;;;;20.73;33.97;100799.91;5088446;28;20024;-76
2023/12/26 10:15:04;;;;;;;23.73;7.07;;;;;;;20.62;34.16;100793.00;5088865;28;20050;-74
2023/12/26 10:17:31;;;;;;;12.38;5.68;;;;;;;20.79;33.97;100807.38;5088345;28;20085;-76
2023/12/26 10:20:00;;;;;;;12.48;5.38;;;;;;;20.77;33.83;100801.22;5087439;28;20085;-75
2023/12/26 10:22:26;;;;;;;14.80;5.28;;;;;;;20.67;33.62;100795.19;5089700;28;20099;-74
2023/12/26 10:24:52;;;;;;;19.02;6.53;;;;;;;20.61;33.77;100773.03;5089647;28;20024;-76
2023/12/26 10:27:18;;;;;;;11.65;5.95;;;;;;;20.76;34.09;100785.88;5088628;28;20024;-75
2023/12/26 10:29:54;;;;;;;11.75;5.80;;;;;;;20.89;34.29;100789.66;5088472;28;20028;-75
2023/12/26 10:32:24;;;;;;;9.63;4.93;;;;;;;20.88;33.32;100771.56;5088224;28;20020;-76
2023/12/26 10:34:50;;;;;;;13.15;5.90;;;;;;;20.99;33.34;100779.28;5087901;28;20085;-76
2023/12/26 10:37:19;;;;;;;9.93;5.22;;;;;;;21.01;32.85;100770.88;5088457;28;20028;-75
2023/12/26 10:39:45;;;;;;;30.38;19.27;;;;;;;21.00;32.94;100780.13;5088174;28;20032;-76
2023/12/26 10:42:12;;;;;;;13.52;5.82;;;;;;;21.03;32.87;100779.75;5088255;28;20024;-74
2023/12/26 10:45:05;;;;;;;8.48;5.03;;;;;;;21.07;33.12;100770.13;5087777;28;20449;-76
2023/12/26 10:47:32;;;;;;;12.00;5.47;;;;;;;21.09;33.24;100774.44;5087663;28;20024;-75
2023/12/26 10:50:03;;;;;;;16.35;5.10;;;;;;;21.21;33.57;100763.00;5087784;28;20059;-75
2023/12/26 10:52:30;;;;;;;12.35;5.30;;;;;;;21.28;33.34;100766.66;5087691;28;20574;-75
2023/12/26 10:55:00;;;;;;;11.07;5.30;;;;;;;21.28;33.28;100762.06;5087767;28;20450;-76
2023/12/26 10:57:29;;;;;;;18.35;4.97;;;;;;;21.32;33.39;100766.09;5087871;28;20073;-79
2023/12/26 11:00:47;;;;;;;9.98;4.70;;;;;;;21.40;33.65;100760.53;5087601;28;20039;-78
2023/12/26 13:51:26;;;;;;;39.33;8.50;;;;;;;20.91;40.33;100664.56;5089235;28;20046;-75
2023/12/26 13:53:52;;;;;;;20.58;7.63;;;;;;;20.79;40.41;100640.63;5089225;28;20140;-75
2023/12/26 13:56:21;;;;;;;15.55;5.10;;;;;;;20.75;40.52;100650.22;5088715;28;20027;-76
2023/12/26 13:58:46;;;;;;;16.15;5.82;;;;;;;20.81;40.46;100665.88;5088783;28;20484;-76
2023/12/26 14:01:18;;;;;;;21.48;6.28;;;;;;;20.75;40.48;100670.22;5088756;28;20024;-76